createdAt,value
2017-08-10T00:02:09.253Z,12.87
2017-08-10T00:04:36.725Z,11.87
2017-08-10T00:07:04.196Z,12.70
2017-08-10T00:09:31.704Z,12.77
2017-08-10T00:11:59.942Z,12.10
2017-08-10T00:14:27.417Z,13.70
2017-08-10T00:16:54.916Z,10.40
2017-08-10T00:19:22.398Z,13.57
2017-08-10T00:21:49.873Z,13.30
2017-08-10T00:24:17.364Z,11.57
2017-08-10T00:26:45.609Z,13.27
2017-08-10T00:29:13.085Z,13.87
2017-08-10T00:31:40.586Z,14.73
2017-08-10T00:34:08.065Z,14.30
2017-08-10T00:36:35.541Z,13.67
2017-08-10T00:39:03.436Z,13.90
2017-08-10T00:41:31.689Z,14.40
2017-08-10T00:43:59.169Z,13.30
2017-08-10T00:46:26.694Z,15.00
2017-08-10T00:48:54.174Z,14.87
2017-08-10T00:51:21.649Z,16.60
2017-08-10T00:53:49.173Z,14.93
2017-08-10T00:56:16.656Z,17.50
2017-08-10T00:58:44.925Z,17.17
2017-08-10T01:01:13.198Z,15.70
2017-08-10T01:03:42.029Z,15.50
2017-08-10T01:19:07.086Z,18.50
2017-08-10T01:21:34.693Z,16.07
2017-08-10T01:24:02.173Z,16.63
2017-08-10T01:26:29.668Z,14.80
2017-08-10T01:28:57.461Z,15.90
2017-08-10T01:31:24.940Z,17.70
2017-08-10T01:33:52.437Z,15.80
2017-08-10T01:36:20.681Z,17.30
2017-08-10T01:38:48.152Z,17.53
2017-08-10T01:41:16.024Z,17.10
2017-08-10T01:43:44.265Z,17.83
2017-08-10T01:46:11.834Z,17.07
2017-08-10T01:48:39.333Z,17.03
2017-08-10T01:51:07.572Z,17.90
2017-08-10T01:53:35.045Z,16.13
2017-08-10T01:56:02.541Z,17.50
2017-08-10T01:58:30.017Z,17.90
2017-08-10T02:00:57.576Z,18.20
2017-08-10T02:03:25.165Z,15.40
2017-08-10T02:05:52.641Z,16.73
2017-08-10T02:08:20.893Z,17.07
2017-08-10T02:10:48.393Z,15.40
2017-08-10T02:13:15.872Z,18.40
2017-08-10T02:15:43.353Z,20.33
2017-08-10T02:18:11.107Z,19.53
2017-08-10T02:20:38.585Z,17.73
2017-08-10T02:23:06.057Z,19.13
2017-08-10T02:25:33.557Z,17.90
2017-08-10T02:28:01.032Z,19.10
2017-08-10T02:30:28.794Z,17.10
2017-08-10T02:32:56.557Z,18.27
2017-08-10T02:35:24.048Z,18.67
2017-08-10T02:37:51.527Z,18.30
2017-08-10T02:40:19.793Z,18.07
2017-08-10T02:42:47.265Z,17.33
2017-08-10T02:45:15.513Z,18.00
2017-08-10T02:47:43.009Z,17.17
2017-08-10T02:50:10.489Z,18.10
2017-08-10T02:52:37.969Z,19.10
2017-08-10T02:55:05.469Z,19.90
2017-08-10T02:57:33.714Z,19.00
2017-08-10T03:00:01.973Z,19.00
2017-08-10T03:02:29.470Z,19.70
2017-08-10T03:04:57.713Z,18.57
2017-08-10T03:07:25.200Z,19.50
2017-08-10T03:09:53.461Z,20.63
2017-08-10T03:12:20.937Z,18.60
2017-08-10T03:14:49.181Z,19.97
2017-08-10T03:17:16.685Z,21.00
2017-08-10T03:19:44.165Z,19.07
2017-08-10T03:22:11.641Z,18.73
2017-08-10T03:24:39.137Z,19.60
2017-08-10T03:27:07.378Z,18.60
2017-08-10T03:29:34.854Z,19.93
2017-08-10T03:32:02.349Z,18.20
2017-08-10T03:34:29.822Z,19.30
2017-08-10T03:36:57.297Z,18.97
2017-08-10T03:39:24.796Z,15.27
2017-08-10T03:41:53.039Z,18.60
2017-08-10T03:44:20.785Z,17.70
2017-08-10T03:46:48.276Z,19.87
2017-08-10T03:49:15.753Z,16.13
2017-08-10T03:51:43.997Z,16.50
2017-08-10T03:54:11.492Z,15.27
2017-08-10T03:56:39.733Z,17.37
2017-08-10T03:59:07.210Z,18.40
2017-08-10T04:01:34.710Z,15.40
2017-08-10T04:04:02.201Z,15.50
2017-08-10T04:06:29.677Z,13.27
2017-08-10T04:08:57.168Z,12.50
2017-08-10T04:11:24.642Z,14.40
2017-08-10T04:13:52.116Z,14.07
2017-08-10T04:16:19.621Z,12.93
2017-08-10T04:18:47.861Z,12.80
2017-08-10T04:21:15.341Z,15.50
2017-08-10T04:23:43.058Z,15.30
2017-08-10T04:26:10.529Z,19.60
2017-08-10T04:28:38.005Z,17.60
2017-08-10T04:31:05.893Z,17.20
2017-08-10T04:33:34.145Z,17.37
2017-08-10T04:36:01.622Z,15.17
2017-08-10T04:38:29.886Z,14.40
2017-08-10T04:40:57.357Z,13.87
2017-08-10T04:43:25.600Z,13.97
2017-08-10T04:45:53.110Z,15.00
2017-08-10T04:48:20.589Z,16.17
2017-08-10T04:50:48.064Z,14.03
2017-08-10T04:53:15.560Z,14.83
2017-08-10T04:55:43.824Z,15.33
2017-08-10T04:58:11.393Z,15.87
2017-08-10T05:00:39.657Z,17.10
2017-08-10T05:03:07.129Z,19.60
2017-08-10T05:05:35.374Z,17.03
2017-08-10T05:08:02.881Z,18.47
2017-08-10T05:10:30.361Z,18.07
2017-08-10T05:12:57.833Z,16.83
2017-08-10T05:15:25.333Z,17.60
2017-08-10T05:17:53.576Z,17.07
2017-08-10T05:20:21.049Z,17.43
2017-08-10T05:22:48.560Z,16.97
2017-08-10T05:25:16.054Z,17.90
2017-08-10T05:27:43.525Z,17.77
2017-08-10T05:30:11.024Z,18.13
2017-08-10T05:32:38.497Z,18.77
2017-08-10T05:35:05.969Z,18.50
2017-08-10T05:37:33.554Z,18.67
2017-08-10T05:40:01.037Z,17.03
2017-08-10T05:42:29.497Z,19.03
2017-08-10T05:44:56.993Z,19.13
2017-08-10T05:47:24.466Z,17.47
2017-08-10T05:49:51.946Z,18.13
2017-08-10T05:52:19.441Z,19.23
2017-08-10T05:54:47.705Z,19.00
2017-08-10T05:57:15.947Z,18.23
2017-08-10T05:59:43.446Z,17.57
2017-08-10T06:02:11.686Z,18.87
2017-08-10T06:04:39.156Z,20.00
2017-08-10T06:07:06.661Z,20.87
2017-08-10T06:09:34.137Z,22.27
2017-08-10T06:12:01.612Z,22.30
2017-08-10T06:14:29.112Z,21.97
2017-08-10T06:16:57.353Z,21.77
2017-08-10T06:19:24.824Z,21.90
2017-08-10T06:21:52.317Z,21.93
2017-08-10T06:24:19.792Z,21.10
2017-08-10T06:26:47.266Z,22.80
2017-08-10T06:29:14.767Z,22.80
2017-08-10T06:31:42.257Z,22.93
2017-08-10T06:34:09.735Z,20.77
2017-08-10T06:36:37.228Z,22.57
2017-08-10T06:39:04.705Z,19.80
2017-08-10T06:41:32.193Z,18.87
2017-08-10T06:43:59.689Z,16.50
2017-08-10T06:46:27.205Z,18.77
2017-08-10T06:48:54.680Z,17.10
2017-08-10T06:51:22.173Z,17.17
2017-08-10T06:53:49.644Z,16.03
2017-08-10T06:56:17.889Z,15.50
2017-08-10T06:58:45.393Z,14.17
2017-08-10T07:01:12.928Z,13.77
2017-08-10T07:03:41.457Z,15.30
2017-08-10T07:06:08.958Z,13.40
2017-08-10T07:08:36.437Z,12.83
2017-08-10T07:11:04.677Z,13.37
2017-08-10T07:13:32.179Z,11.27
2017-08-10T07:15:59.657Z,11.47
2017-08-10T07:18:27.133Z,13.20
2017-08-10T07:20:54.633Z,11.27
2017-08-10T07:23:22.877Z,13.90
2017-08-10T07:25:50.358Z,14.40
2017-08-10T07:28:18.617Z,12.70
2017-08-10T07:30:46.349Z,14.97
2017-08-10T07:33:14.048Z,15.37
2017-08-10T07:35:41.822Z,15.23
2017-08-10T07:38:09.306Z,15.37
2017-08-10T07:40:36.884Z,14.93
2017-08-10T07:43:04.653Z,14.03
2017-08-10T07:45:32.134Z,14.70
2017-08-10T07:47:59.649Z,14.67
2017-08-10T07:50:27.144Z,14.97
2017-08-10T07:52:54.621Z,18.07
2017-08-10T07:55:22.096Z,13.17
2017-08-10T07:57:50.361Z,14.33
2017-08-10T08:00:17.836Z,12.20
2017-08-10T08:02:46.082Z,12.57
2017-08-10T08:05:13.595Z,13.80
2017-08-10T08:07:41.077Z,12.07
2017-08-10T08:10:08.553Z,13.20
2017-08-10T08:12:36.289Z,13.80
2017-08-10T08:15:03.771Z,15.70
2017-08-10T08:17:31.505Z,14.43
2017-08-10T08:19:59.234Z,14.40
2017-08-10T08:22:27.749Z,15.93
2017-08-10T08:24:55.229Z,14.30
2017-08-10T08:27:22.969Z,15.70
2017-08-10T08:29:50.493Z,13.40
2017-08-10T08:32:18.735Z,11.43
2017-08-10T08:34:46.238Z,12.60
2017-08-10T08:37:13.773Z,13.37
2017-08-10T08:39:41.286Z,11.80
2017-08-10T08:42:08.781Z,14.03
2017-08-10T08:44:36.497Z,13.53
2017-08-10T08:47:03.973Z,11.53
2017-08-10T08:49:31.477Z,13.30
2017-08-10T08:51:59.719Z,13.40
2017-08-10T08:54:27.197Z,11.90
2017-08-10T08:56:55.458Z,12.90
2017-08-10T08:59:22.929Z,9.90
2017-08-10T09:01:51.173Z,11.40
2017-08-10T09:04:18.913Z,11.30
2017-08-10T09:06:46.384Z,9.73
2017-08-10T09:09:13.881Z,9.90
2017-08-10T09:11:42.141Z,9.93
2017-08-10T09:14:09.614Z,9.60
2017-08-10T09:16:37.853Z,9.70
2017-08-10T09:19:05.345Z,8.87
2017-08-10T09:21:33.635Z,10.07
2017-08-10T09:24:01.869Z,9.73
2017-08-10T09:26:29.362Z,9.90
2017-08-10T09:28:57.609Z,9.20
2017-08-10T09:31:25.077Z,8.97
2017-08-10T09:33:53.357Z,8.63
2017-08-10T09:36:21.596Z,8.50
2017-08-10T09:38:49.069Z,7.50
2017-08-10T09:41:17.581Z,8.77
2017-08-10T09:43:45.820Z,7.60
2017-08-10T09:46:13.294Z,7.67
2017-08-10T09:48:40.802Z,7.03
2017-08-10T09:51:08.273Z,7.03
2017-08-10T09:53:35.745Z,7.33
2017-08-10T09:56:03.238Z,6.50
2017-08-10T09:58:31.474Z,5.50
2017-08-10T10:00:59.221Z,6.77
2017-08-10T10:03:26.737Z,7.50
2017-08-10T10:05:54.997Z,7.57
2017-08-10T10:08:22.472Z,6.50
2017-08-10T10:10:50.741Z,6.70
2017-08-10T10:13:18.980Z,6.93
2017-08-10T10:15:46.461Z,6.23
2017-08-10T10:18:14.737Z,6.70
2017-08-10T10:20:42.209Z,6.47
2017-08-10T10:23:10.445Z,5.13
2017-08-10T10:25:37.937Z,5.47
2017-08-10T10:28:06.177Z,4.80
2017-08-10T10:30:33.765Z,4.60
2017-08-10T10:33:01.253Z,4.57
2017-08-10T10:35:28.721Z,4.10
2017-08-10T10:37:56.190Z,5.03
2017-08-10T10:40:23.746Z,4.57
2017-08-10T10:42:51.217Z,4.47
2017-08-10T10:45:18.690Z,4.50
2017-08-10T10:47:46.975Z,4.63
2017-08-10T10:50:15.233Z,3.97
2017-08-10T10:52:42.696Z,3.40
2017-08-10T10:55:10.189Z,2.20
2017-08-10T10:57:38.425Z,2.27
2017-08-10T11:00:05.893Z,1.80
2017-08-10T11:02:33.381Z,2.57
2017-08-10T11:05:01.629Z,2.77
2017-08-10T11:07:29.096Z,2.83
2017-08-10T11:09:56.613Z,2.67
2017-08-10T11:12:24.093Z,2.47
2017-08-10T11:14:51.561Z,2.80
2017-08-10T11:17:19.062Z,4.00
2017-08-10T11:19:46.532Z,2.57
2017-08-10T11:22:14.007Z,2.37
2017-08-10T11:24:41.497Z,1.83
2017-08-10T11:27:09.744Z,1.93
2017-08-10T11:29:37.212Z,3.20
2017-08-10T11:32:04.955Z,2.37
2017-08-10T11:34:32.431Z,1.60
2017-08-10T11:36:59.905Z,1.60
2017-08-10T11:39:27.397Z,1.90
2017-08-10T11:41:54.874Z,2.50
2017-08-10T11:44:22.345Z,2.40
2017-08-10T11:46:49.945Z,2.70
2017-08-10T11:49:18.181Z,2.43
2017-08-10T11:51:45.669Z,3.00
2017-08-10T11:54:13.279Z,2.90
2017-08-10T11:56:40.754Z,2.37
2017-08-10T11:59:08.225Z,2.17
2017-08-10T12:01:35.716Z,1.80
2017-08-10T12:04:03.952Z,2.47
2017-08-10T12:06:31.421Z,1.80
2017-08-10T12:08:58.934Z,2.13
2017-08-10T12:11:26.405Z,2.67
2017-08-10T12:13:53.874Z,2.50
2017-08-10T12:16:21.368Z,2.60
2017-08-10T12:18:49.609Z,2.23
2017-08-10T12:21:17.081Z,2.20
2017-08-10T12:23:44.569Z,2.40
2017-08-10T12:26:12.810Z,1.80
2017-08-10T12:28:40.280Z,2.40
2017-08-10T12:31:07.773Z,3.70
2017-08-10T12:33:35.246Z,2.50
2017-08-10T12:36:02.717Z,2.10
2017-08-10T12:38:30.214Z,2.30
2017-08-10T12:40:57.682Z,2.00
2017-08-10T12:43:25.952Z,1.73
2017-08-10T12:45:54.221Z,1.80
2017-08-10T12:48:21.689Z,1.97
2017-08-10T12:50:49.931Z,2.10
2017-08-10T12:53:17.673Z,2.70
2017-08-10T12:55:45.141Z,2.50
2017-08-10T12:58:12.613Z,2.73
2017-08-10T13:00:40.105Z,2.03
2017-08-10T13:03:08.345Z,2.33
2017-08-10T13:05:35.814Z,2.40
2017-08-10T13:08:03.305Z,2.73
2017-08-10T13:10:30.772Z,3.60
2017-08-10T13:12:58.241Z,3.00
2017-08-10T13:15:25.729Z,3.03
2017-08-10T13:17:53.198Z,2.50
2017-08-10T13:20:20.677Z,3.33
2017-08-10T13:22:48.937Z,3.40
2017-08-10T13:25:16.409Z,2.80
2017-08-10T13:27:44.656Z,2.37
2017-08-10T13:30:12.147Z,2.53
2017-08-10T13:32:40.385Z,1.57
2017-08-10T13:35:07.856Z,2.33
2017-08-10T13:37:35.345Z,2.47
2017-08-10T13:40:02.820Z,2.43
2017-08-10T13:42:31.180Z,2.40
2017-08-10T13:44:58.682Z,3.30
2017-08-10T13:47:26.149Z,2.87
2017-08-10T13:49:53.622Z,3.10
2017-08-10T13:52:21.136Z,2.50
2017-08-10T13:54:48.610Z,2.50
2017-08-10T13:57:16.078Z,3.20
2017-08-10T13:59:43.569Z,3.10
2017-08-10T14:02:11.877Z,4.20
2017-08-10T14:04:39.354Z,2.50
2017-08-10T14:07:06.892Z,2.37
2017-08-10T14:09:34.361Z,2.57
2017-08-10T14:12:01.841Z,2.90
2017-08-10T14:14:29.340Z,2.07
2017-08-10T14:16:56.818Z,2.70
2017-08-10T14:19:24.316Z,2.93
2017-08-10T14:21:51.810Z,3.10
2017-08-10T14:24:19.282Z,2.67
2017-08-10T14:26:46.752Z,2.50
2017-08-10T14:29:14.241Z,2.57
2017-08-10T14:31:41.709Z,3.50
2017-08-10T14:34:09.214Z,2.50
2017-08-10T14:36:36.701Z,2.60
2017-08-10T14:39:04.189Z,2.77
2017-08-10T14:41:31.666Z,3.13
2017-08-10T14:43:59.967Z,2.00
2017-08-10T14:46:27.445Z,2.27
2017-08-10T14:48:54.919Z,2.87
2017-08-10T14:51:22.421Z,2.73
2017-08-10T14:53:49.901Z,2.43
2017-08-10T14:56:17.377Z,1.80
2017-08-10T14:58:44.865Z,2.10
2017-08-10T15:01:12.370Z,2.20
2017-08-10T15:03:39.840Z,2.10
2017-08-10T15:06:07.337Z,2.60
2017-08-10T15:08:34.805Z,2.53
2017-08-10T15:11:03.041Z,3.03
2017-08-10T15:13:30.542Z,2.60
2017-08-10T15:15:58.778Z,2.60
2017-08-10T15:18:26.245Z,2.83
2017-08-10T15:20:53.736Z,3.17
2017-08-10T15:23:22.249Z,2.43
2017-08-10T15:25:49.716Z,3.00
2017-08-10T15:28:17.205Z,3.13
2017-08-10T15:30:44.676Z,2.30
2017-08-10T15:33:12.913Z,3.17
2017-08-10T15:35:40.661Z,2.70
2017-08-10T15:38:08.590Z,3.27
2017-08-10T15:40:36.829Z,2.87
2017-08-10T15:43:04.330Z,2.97
2017-08-10T15:45:32.565Z,2.67
2017-08-10T15:48:00.034Z,3.50
2017-08-10T15:50:27.529Z,3.83
2017-08-10T15:52:55.005Z,3.20
2017-08-10T15:55:22.485Z,2.77
2017-08-10T15:57:49.989Z,2.40
2017-08-10T16:00:17.605Z,4.70
2017-08-10T16:02:45.079Z,3.80
2017-08-10T16:05:12.604Z,2.30
2017-08-10T16:07:40.077Z,3.37
2017-08-10T16:10:07.549Z,2.90
2017-08-10T16:12:35.054Z,3.23
2017-08-10T16:15:02.574Z,3.10
2017-08-10T16:17:30.078Z,3.47
2017-08-10T16:19:57.608Z,2.57
2017-08-10T16:22:25.956Z,3.20
2017-08-10T16:24:53.445Z,3.13
2017-08-10T16:27:21.705Z,3.90
2017-08-10T16:29:49.945Z,3.40
2017-08-10T16:32:17.414Z,2.60
2017-08-10T16:34:44.913Z,2.50
2017-08-10T16:37:12.385Z,3.47
2017-08-10T16:39:39.948Z,3.10
2017-08-10T16:42:07.457Z,3.00
2017-08-10T16:44:35.148Z,3.50
2017-08-10T16:47:03.385Z,3.27
2017-08-10T16:49:30.921Z,3.60
2017-08-10T16:51:58.388Z,2.70
2017-08-10T16:54:25.864Z,3.37
2017-08-10T16:56:53.373Z,3.10
2017-08-10T16:59:21.061Z,3.23
2017-08-10T17:01:48.549Z,3.60
2017-08-10T17:04:16.042Z,3.07
2017-08-10T17:06:43.510Z,3.43
2017-08-10T17:09:10.983Z,3.00
2017-08-10T17:11:38.474Z,3.07
2017-08-10T17:14:05.945Z,3.20
2017-08-10T17:16:34.182Z,3.50
2017-08-10T17:19:01.675Z,3.70
2017-08-10T17:21:29.913Z,3.73
2017-08-10T17:23:57.386Z,3.13
2017-08-10T17:26:24.885Z,3.80
2017-08-10T17:28:52.353Z,4.20
2017-08-10T17:31:20.133Z,3.90
2017-08-10T17:33:47.626Z,3.23
2017-08-10T17:36:15.161Z,4.30
2017-08-10T17:38:42.637Z,3.33
2017-08-10T17:41:10.281Z,2.80
2017-08-10T17:43:37.750Z,4.30
2017-08-10T17:46:05.225Z,4.20
2017-08-10T17:48:32.793Z,3.23
2017-08-10T17:51:01.033Z,3.83
2017-08-10T17:53:28.778Z,4.67
2017-08-10T17:55:56.268Z,3.13
2017-08-10T17:58:23.742Z,4.77
2017-08-10T18:00:51.986Z,3.67
2017-08-10T18:03:19.477Z,5.63
2017-08-10T18:05:47.725Z,4.20
2017-08-10T18:08:15.325Z,5.20
2017-08-10T18:10:42.722Z,3.90
2017-08-10T18:13:10.195Z,4.27
2017-08-10T18:15:37.678Z,5.40
2017-08-10T18:18:05.173Z,4.67
2017-08-10T18:20:32.647Z,5.30
2017-08-10T18:23:00.197Z,4.77
2017-08-10T18:25:27.689Z,3.80
2017-08-10T18:27:55.429Z,4.57
2017-08-10T18:30:22.909Z,5.20
2017-08-10T18:32:50.400Z,5.50
2017-08-10T18:35:18.645Z,5.13
2017-08-10T18:37:46.117Z,6.53
2017-08-10T18:40:13.605Z,5.30
2017-08-10T18:42:41.292Z,5.10
2017-08-10T18:45:08.801Z,5.90
2017-08-10T18:47:37.063Z,5.87
2017-08-10T18:50:04.533Z,5.20
2017-08-10T18:52:32.777Z,5.73
2017-08-10T18:55:00.270Z,5.03
2017-08-10T18:57:28.514Z,6.10
2017-08-10T18:59:55.985Z,5.07
2017-08-10T19:02:23.476Z,5.40
2017-08-10T19:04:50.944Z,4.90
2017-08-10T19:07:18.413Z,5.60
2017-08-10T19:09:45.906Z,6.20
2017-08-10T19:12:13.385Z,5.33
2017-08-10T19:14:41.665Z,6.23
2017-08-10T19:17:10.286Z,6.07
2017-08-10T19:19:37.760Z,6.03
2017-08-10T19:22:05.240Z,6.03
2017-08-10T19:24:32.733Z,5.83
2017-08-10T19:27:00.229Z,5.90
2017-08-10T19:29:27.746Z,4.47
2017-08-10T19:31:55.241Z,5.97
2017-08-10T19:34:22.714Z,6.20
2017-08-10T19:36:50.194Z,5.40
2017-08-10T19:39:17.682Z,5.70
2017-08-10T19:41:45.162Z,6.37
2017-08-10T19:44:12.638Z,6.67
2017-08-10T19:46:40.132Z,6.30
2017-08-10T19:49:08.373Z,6.07
2017-08-10T19:51:35.845Z,6.13
2017-08-10T19:54:03.334Z,6.00
2017-08-10T19:56:31.580Z,6.80
2017-08-10T19:58:59.060Z,8.07
2017-08-10T20:01:27.322Z,6.77
2017-08-10T20:03:54.793Z,7.70
2017-08-10T20:06:23.033Z,7.73
2017-08-10T20:08:50.521Z,7.20
2017-08-10T20:11:18.766Z,6.23
2017-08-10T20:13:46.240Z,7.47
2017-08-10T20:16:13.737Z,6.43
2017-08-10T20:18:41.298Z,6.80
2017-08-10T20:21:08.770Z,6.80
2017-08-10T20:23:36.273Z,6.70
2017-08-10T20:26:03.745Z,6.37
2017-08-10T20:28:31.982Z,6.57
2017-08-10T20:30:59.481Z,7.80
2017-08-10T20:33:27.720Z,8.17
2017-08-10T20:35:55.253Z,7.70
2017-08-10T20:38:22.745Z,8.10
2017-08-10T20:40:50.213Z,8.60
2017-08-10T20:43:17.929Z,8.83
2017-08-10T20:45:45.426Z,7.70
2017-08-10T20:48:12.897Z,9.43
2017-08-10T20:50:41.135Z,7.90
2017-08-10T20:53:08.629Z,9.13
2017-08-10T20:55:36.866Z,8.80
2017-08-10T20:58:04.353Z,9.80
2017-08-10T21:00:31.851Z,10.40
2017-08-10T21:02:59.334Z,11.10
2017-08-10T21:05:26.817Z,10.23
2017-08-10T21:07:54.321Z,9.67
2017-08-10T21:10:22.101Z,9.83
2017-08-10T21:12:49.577Z,10.70
2017-08-10T21:15:17.069Z,9.73
2017-08-10T21:17:45.305Z,9.57
2017-08-10T21:20:12.786Z,11.37
2017-08-10T21:22:40.284Z,11.17
2017-08-10T21:25:07.970Z,11.27
2017-08-10T21:27:35.464Z,10.50
2017-08-10T21:30:02.965Z,11.47
2017-08-10T21:32:30.436Z,11.13
2017-08-10T21:34:57.909Z,12.73
2017-08-10T21:37:25.413Z,10.27
2017-08-10T21:39:53.652Z,11.30
2017-08-10T21:42:21.124Z,10.27
2017-08-10T21:44:48.621Z,12.50
2017-08-10T21:47:16.101Z,13.00
2017-08-10T21:49:43.610Z,11.77
2017-08-10T21:52:11.877Z,12.50
2017-08-10T21:54:39.356Z,13.83
2017-08-10T21:57:07.874Z,13.87
2017-08-10T21:59:35.371Z,13.03
2017-08-10T22:02:02.946Z,13.33
2017-08-10T22:04:31.197Z,15.63
2017-08-10T22:06:58.692Z,12.83
2017-08-10T22:09:26.933Z,14.10
2017-08-10T22:11:54.409Z,13.50
2017-08-10T22:14:22.671Z,13.60
2017-08-10T22:16:50.149Z,14.60
2017-08-10T22:19:18.400Z,16.00
2017-08-10T22:21:45.897Z,15.20
2017-08-10T22:24:13.377Z,14.90
2017-08-10T22:26:40.897Z,14.43
2017-08-10T22:29:09.161Z,15.47
2017-08-10T22:31:37.401Z,13.80
2017-08-10T22:34:04.881Z,15.17
2017-08-10T22:36:32.381Z,16.37
2017-08-10T22:38:59.858Z,14.37
2017-08-10T22:41:27.333Z,14.10
2017-08-10T22:43:55.034Z,15.27
2017-08-10T22:46:23.560Z,14.00
2017-08-10T22:48:51.073Z,13.67
2017-08-10T22:51:19.338Z,13.00
2017-08-10T22:53:46.809Z,12.60
2017-08-10T22:56:15.056Z,12.87
2017-08-10T22:58:42.549Z,14.83
2017-08-10T23:01:10.789Z,13.43
2017-08-10T23:03:38.265Z,14.73
2017-08-10T23:06:05.761Z,13.40
2017-08-10T23:08:33.237Z,15.10
2017-08-10T23:11:00.713Z,13.40
2017-08-10T23:13:28.210Z,12.70
2017-08-10T23:15:56.734Z,12.40
2017-08-10T23:18:24.493Z,12.63
2017-08-10T23:20:51.989Z,13.93
2017-08-10T23:23:19.465Z,13.83
2017-08-10T23:25:46.969Z,12.60
2017-08-10T23:28:14.460Z,14.20
2017-08-10T23:30:41.934Z,13.40
2017-08-10T23:33:10.176Z,12.57
2017-08-10T23:35:37.680Z,14.47
2017-08-10T23:38:05.157Z,13.57
2017-08-10T23:40:32.637Z,11.27
2017-08-10T23:43:00.133Z,12.10
2017-08-10T23:45:28.380Z,12.53
2017-08-10T23:47:55.853Z,14.70
2017-08-10T23:50:23.357Z,12.23
2017-08-10T23:52:50.835Z,12.60
2017-08-10T23:55:19.402Z,11.70
2017-08-10T23:57:47.670Z,10.93
